Detalii statie UNIVERSITATEA AGRICOLA IASI [0000198B]

Toti senzorii

Date Temperatura solului [C]Precipitatii [mm]Voltaj baterie [mV]HC Air temperature [C]HC Relative humidity [%]Punctul de roua [C]
medieminmaxsumaultimamedieminmaxmediemediemin
2018-02-23 13:00:00 0.3 0.3 0.5 0 7332 -1.05 -1.19 -0.8 100 -0.9 -1
2018-02-23 14:00:00 0.3 0.3 0.5 0 7284 -0.77 -1 -0.52 100 -0.6 -0.9
2018-02-23 15:00:00 0.4 0.3 0.5 0 7332 -0.56 -0.72 -0.31 100 -0.4 -0.6
2018-02-23 16:00:00 0.3 0.3 0.5 0 7324 -0.24 -0.71 0.15 100 -0.1 -0.6
2018-02-23 17:00:00 0.4 0.3 0.5 0 7196 -0.28 -0.77 0.15 100 -0.2 -0.6
2018-02-23 18:00:00 0.4 0.3 0.5 0 7070 -0.94 -1.25 -0.75 100 -0.8 -1.1
2018-02-23 19:00:00 0.4 0.3 0.5 0 7040 -1.25 -1.37 -1.14 100 -1.1 -1.2
2018-02-23 20:00:00 0.4 0.3 0.5 0 6962 -1.34 -1.5 -1.2 100 -1.2 -1.4
2018-02-23 21:00:00 0.3 0.3 0.5 0 6952 -1.68 -1.88 -1.55 100 -1.5 -1.7
2018-02-23 22:00:00 0.4 0.3 0.6 0 6932 -1.82 -1.88 -1.78 100 -1.6 -1.7
2018-02-23 23:00:00 0.4 0.3 0.5 0 6922 -1.89 -1.92 -1.85 100 -1.7 -1.8
2018-02-24 00:00:00 0.4 0.3 0.5 0 6922 -1.96 -2.02 -1.92 100 -1.8 -1.9
2018-02-24 01:00:00 0.4 0.3 0.5 0 6894 -2.07 -2.19 -2 100 -1.9 -2
2018-02-24 02:00:00 0.4 0.3 0.5 0 6894 -2.35 -2.45 -2.17 100 -2.2 -2.3
2018-02-24 03:00:00 0.4 0.3 0.5 0 6884 -2.37 -2.45 -2.3 100 -2.2 -2.3
2018-02-24 04:00:00 0.4 0.3 0.5 0 6874 -2.31 -2.35 -2.27 100 -2.1 -2.2
2018-02-24 05:00:00 0.4 0.4 0.5 0 6874 -2.39 -2.46 -2.3 100 -2.2 -2.3
2018-02-24 06:00:00 0.4 0.2 0.5 0 6864 -2.49 -2.74 -2.34 100 -2.3 -2.6
2018-02-24 07:00:00 0.3 0.2 0.5 0 6864 -3.05 -3.28 -2.78 100 -2.8 -3.1
2018-02-24 08:00:00 0.3 0.3 0.6 0 6844 -3.58 -3.87 -3.34 100 -3.4 -3.7
2018-02-24 09:00:00 0.3 0.3 0.5 0 6884 -4.14 -4.27 -3.93 100 -4 -4.1
2018-02-24 10:00:00 0.4 0.3 0.5 0 6962 -4.46 -4.69 -4.29 100 -4.3 -4.5
2018-02-24 11:00:00 0.4 0.3 0.5 0 7080 -4.78 -4.84 -4.69 100 -4.6 -4.7
2018-02-24 12:00:00 0.4 0.3 0.5 0 7196 -4.88 -5.15 -4.69 100 -4.7 -5
2018-02-24 13:00:00 0.4 0.3 0.6 0 7332 -5.28 -5.43 -5.07 100 -5.1 -5.3
2018-02-24 14:00:00 0.4 0.4 0.5 0 7332 -5.23 -5.42 -4.94 100 -5 -5.3
2018-02-24 15:00:00 0.4 0.3 0.5 0 7246 -4.87 -5.03 -4.8 100 -4.7 -4.9
2018-02-24 16:00:00 0.4 0.3 0.5 0 7332 -4.75 -4.91 -4.57 100 -4.6 -4.8
2018-02-24 17:00:00 0.4 0.4 0.5 0 7216 -4.56 -4.61 -4.5 100 -4.4 -4.5
2018-02-24 18:00:00 0.3 0.3 0.5 0 7108 -4.66 -4.81 -4.57 100 -4.5 -4.7
2018-02-24 19:00:00 0.3 0.2 0.5 0 7080 -4.97 -5.18 -4.79 100 -4.8 -5
2018-02-24 20:00:00 0.3 0.3 0.4 0 7000 -5.49 -5.73 -5.24 100 -5.3 -5.6
2018-02-24 21:00:00 0.3 0.3 0.4 0 6972 -6.31 -6.85 -5.86 100 -6.1 -6.7
2018-02-24 22:00:00 0.3 0.2 0.4 0 6932 -8.12 -9.1 -7.04 100 -7.9 -9
2018-02-24 23:00:00 0.2 0.2 0.4 0 6922 -9.53 -10.35 -8.94 100 -9.3 -10.2
2018-02-25 00:00:00 0.2 0.2 0.4 0 6874 -10.74 -11.25 -10.12 100 -10.6 -11.1
2018-02-25 01:00:00 0.2 0.2 0.4 0 6854 -10.46 -10.87 -10.12 100 -10.3 -10.7
2018-02-25 02:00:00 0.2 0 0.3 0 6874 -10.5 -10.62 -10.41 100 -10.3 -10.5
2018-02-25 03:00:00 0.2 0.2 0.3 0 6834 -10.5 -10.83 -10.23 100 -10.3 -10.7
2018-02-25 04:00:00 0.2 0.2 0.3 0 6834 -9.48 -10.03 -9.14 100 -9.3 -9.9
2018-02-25 05:00:00 0.2 0.2 0.3 0 6844 -9.07 -9.17 -9.02 100 -8.9 -9
2018-02-25 06:00:00 0.1 0.1 0.3 0 6834 -9.15 -9.21 -9.07 100 -9 -9.1
2018-02-25 07:00:00 0.1 0.1 0.4 0 6834 -8.99 -9.03 -8.95 100 -8.8 -8.9
2018-02-25 08:00:00 0.1 0.1 0.2 0 6864 -9.01 -9.06 -8.98 100 -8.8 -8.9
2018-02-25 09:00:00 0.1 0.1 0.2 0 7254 -8.99 -9.06 -8.89 100 -8.8 -8.9
2018-02-25 10:00:00 0.1 0 0.2 0 7372 -8.84 -8.97 -8.65 100 -8.6 -8.8
2018-02-25 11:00:00 0.1 0.1 0.2 0 7342 -8.23 -8.55 -7.97 100 -8 -8.4
2018-02-25 12:00:00 0.1 0 0.2 0 7342 -7.64 -7.89 -7.25 100 -7.4 -7.7